Time;durP1;ratioP1;P1;durP2;ratioP2;P2;SDS_P1;SDS_P2;PMS_P1;PMS_P2;Temp;Humidity;BMP_temperature;BMP_pressure;BME280_temperature;BME280_humidity;BME280_pressure;Samples;Min_cycle;Max_cycle;Signal;HPM_P1;HPM_P2
2023/09/06 00:02:10;;;;;;;3.40;3.10;;;;;;;;;;4965055;28;20410;-82
2023/09/06 00:04:36;;;;;;;6.07;3.70;;;;;;;;;;4967533;28;20415;-84
2023/09/06 00:07:03;;;;;;;3.87;2.97;;;;;;;;;;4964827;28;20450;-84
2023/09/06 00:09:29;;;;;;;3.07;2.40;;;;;;;;;;4966638;28;20263;-85
2023/09/06 00:11:55;;;;;;;5.70;3.47;;;;;;;;;;4965146;28;20506;-85
2023/09/06 00:14:21;;;;;;;4.53;3.13;;;;;;;;;;4966615;28;20926;-84
2023/09/06 00:16:47;;;;;;;3.57;2.63;;;;;;;;;;4966852;28;20181;-84
2023/09/06 00:19:14;;;;;;;3.93;2.83;;;;;;;;;;4965039;28;21136;-82
2023/09/06 00:21:41;;;;;;;4.73;3.00;;;;;;;;;;4966669;28;20423;-84
2023/09/06 00:24:07;;;;;;;5.40;2.83;;;;;;;;;;4966426;28;20419;-82
2023/09/06 00:26:33;;;;;;;3.27;2.63;;;;;;;;;;4965837;28;20631;-82
2023/09/06 00:28:59;;;;;;;3.03;2.83;;;;;;;;;;4972763;28;20463;-84
2023/09/06 00:31:25;;;;;;;4.30;3.27;;;;;;;;;;4967885;28;20291;-84
2023/09/06 00:33:51;;;;;;;6.57;3.67;;;;;;;;;;4964689;28;20573;-83
2023/09/06 00:36:16;;;;;;;4.13;2.67;;;;;;;;;;4968228;28;20189;-83
2023/09/06 00:38:42;;;;;;;3.40;3.10;;;;;;;;;;4963994;28;20181;-86
2023/09/06 00:41:08;;;;;;;3.90;3.50;;;;;;;;;;4965229;28;20426;-83
2023/09/06 00:43:34;;;;;;;3.53;3.23;;;;;;;;;;4965716;28;20178;-82
2023/09/06 00:46:06;;;;;;;4.20;3.40;;;;;;;;;;4969183;28;20445;-83
2023/09/06 00:48:32;;;;;;;3.67;2.00;;;;;;;;;;4967960;28;20451;-84
2023/09/06 00:50:58;;;;;;;5.53;3.43;;;;;;;;;;4968016;28;20419;-83
2023/09/06 00:53:25;;;;;;;3.87;3.20;;;;;;;;;;4967408;28;20802;-82
2023/09/06 00:55:53;;;;;;;3.23;2.93;;;;;;;;;;4966149;28;20825;-84
2023/09/06 00:58:20;;;;;;;3.30;2.70;;;;;;;;;;4968406;28;20459;-86
2023/09/06 01:00:47;;;;;;;5.93;3.23;;;;;;;;;;4964612;28;20986;-86
2023/09/06 01:03:14;;;;;;;5.80;4.27;;;;;;;;;;4969653;28;20424;-85
2023/09/06 01:05:50;;;;;;;7.40;3.13;;;;;;;;;;4965997;28;20497;-86
2023/09/06 01:08:20;;;;;;;3.17;2.73;;;;;;;;;;4949950;28;20412;-82
2023/09/06 01:10:46;;;;;;;3.70;2.53;;;;;;;;;;4966254;28;20404;-85
2023/09/06 01:13:12;;;;;;;4.83;3.60;;;;;;;;;;4964812;28;20432;-83
2023/09/06 01:15:40;;;;;;;4.33;3.53;;;;;;;;;;4975007;28;20515;-82
2023/09/06 01:18:07;;;;;;;3.80;3.10;;;;;;;;;;4976310;28;20484;-82
2023/09/06 01:20:42;;;;;;;3.20;2.90;;;;;;;;;;4976369;28;20427;-84
2023/09/06 01:23:27;;;;;;;2.73;2.13;;;;;;;;;;4975960;28;20419;-82
2023/09/06 01:25:53;;;;;;;3.17;2.70;;;;;;;;;;4976312;28;20439;-83
2023/09/06 01:28:19;;;;;;;3.37;2.67;;;;;;;;;;4975063;28;20450;-83
2023/09/06 01:30:46;;;;;;;2.63;2.43;;;;;;;;;;4976293;28;20451;-82
2023/09/06 01:33:13;;;;;;;3.67;2.80;;;;;;;;;;4976312;28;20427;-82
2023/09/06 01:35:39;;;;;;;5.30;3.20;;;;;;;;;;4976214;28;20529;-84
2023/09/06 01:38:05;;;;;;;5.10;3.20;;;;;;;;;;4975951;28;20406;-83
2023/09/06 01:40:31;;;;;;;3.10;2.63;;;;;;;;;;4976226;28;20173;-84
2023/09/06 01:42:58;;;;;;;4.63;2.73;;;;;;;;;;4976066;28;20176;-83
2023/09/06 01:45:24;;;;;;;4.00;3.27;;;;;;;;;;4976046;28;21033;-82
2023/09/06 01:47:50;;;;;;;4.20;3.07;;;;;;;;;;4976013;28;20495;-82
2023/09/06 01:50:19;;;;;;;4.93;2.60;;;;;;;;;;4975965;28;20224;-82
2023/09/06 01:52:48;;;;;;;5.10;2.77;;;;;;;;;;4974318;28;20263;-83
2023/09/06 01:55:14;;;;;;;4.20;2.80;;;;;;;;;;4975554;28;20534;-82
2023/09/06 01:57:40;;;;;;;2.97;2.60;;;;;;;;;;4975730;28;20520;-83
2023/09/06 02:00:27;;;;;;;4.57;2.87;;;;;;;;;;4975679;28;20422;-82
2023/09/06 02:02:54;;;;;;;3.27;2.47;;;;;;;;;;4975681;28;20924;-82
2023/09/06 02:05:20;;;;;;;3.80;2.80;;;;;;;;;;4975643;28;20423;-84
2023/09/06 02:07:46;;;;;;;3.60;2.30;;;;;;;;;;4974042;28;20433;-81
2023/09/06 02:10:12;;;;;;;5.10;2.70;;;;;;;;;;4975630;28;20541;-82
2023/09/06 02:12:39;;;;;;;3.73;2.03;;;;;;;;;;4975465;28;20430;-82
2023/09/06 02:15:05;;;;;;;3.90;2.00;;;;;;;;;;4975398;28;20914;-82
2023/09/06 02:17:32;;;;;;;4.27;2.80;;;;;;;;;;4973864;28;20429;-81
2023/09/06 02:20:01;;;;;;;3.33;2.27;;;;;;;;;;4974107;28;20977;-81
2023/09/06 02:22:27;;;;;;;3.20;2.00;;;;;;;;;;4975000;28;20458;-81
2023/09/06 02:24:52;;;;;;;4.43;2.33;;;;;;;;;;4975212;28;20504;-81
2023/09/06 02:27:18;;;;;;;3.60;2.57;;;;;;;;;;4975193;28;20255;-82
2023/09/06 02:29:44;;;;;;;3.70;2.33;;;;;;;;;;4975130;28;20183;-81
2023/09/06 02:32:10;;;;;;;4.03;2.93;;;;;;;;;;4975176;28;20504;-81
2023/09/06 02:34:36;;;;;;;3.40;2.10;;;;;;;;;;4975159;28;20178;-81
2023/09/06 02:37:02;;;;;;;2.83;2.07;;;;;;;;;;4973519;28;20184;-81
2023/09/06 02:39:28;;;;;;;3.60;1.77;;;;;;;;;;4975009;28;20257;-81
2023/09/06 02:41:54;;;;;;;2.80;2.43;;;;;;;;;;4974997;28;20972;-82
2023/09/06 02:44:20;;;;;;;2.90;2.37;;;;;;;;;;4974752;28;20549;-81
2023/09/06 02:46:52;;;;;;;4.47;2.57;;;;;;;;;;4974860;28;20183;-81
2023/09/06 02:49:18;;;;;;;4.67;2.80;;;;;;;;;;4973632;28;20185;-81
2023/09/06 02:51:46;;;;;;;4.83;2.17;;;;;;;;;;4974791;28;20426;-80
2023/09/06 02:54:13;;;;;;;3.63;2.50;;;;;;;;;;4973074;28;20695;-80
2023/09/06 02:56:40;;;;;;;2.93;2.30;;;;;;;;;;4974716;28;20420;-81
2023/09/06 02:59:12;;;;;;;4.77;2.20;;;;;;;;;;4974659;28;20496;-80
2023/09/06 03:01:44;;;;;;;3.50;2.60;;;;;;;;;;4974691;28;20420;-81
2023/09/06 03:04:10;;;;;;;3.60;2.50;;;;;;;;;;4974510;28;20504;-81
2023/09/06 03:06:37;;;;;;;4.00;2.83;;;;;;;;;;4974610;28;20516;-81
2023/09/06 03:09:06;;;;;;;3.37;2.37;;;;;;;;;;4974237;28;20189;-80
2023/09/06 03:11:32;;;;;;;4.50;2.10;;;;;;;;;;4974511;28;20891;-81
2023/09/06 03:13:58;;;;;;;2.87;1.80;;;;;;;;;;4974451;28;20429;-80
2023/09/06 03:16:24;;;;;;;3.23;1.80;;;;;;;;;;4974378;28;20911;-80
2023/09/06 03:18:51;;;;;;;4.80;2.07;;;;;;;;;;4974378;28;20187;-81
2023/09/06 03:21:17;;;;;;;4.13;2.03;;;;;;;;;;4974371;28;20938;-80
2023/09/06 03:23:44;;;;;;;2.90;2.03;;;;;;;;;;4972780;28;20526;-81
2023/09/06 03:26:10;;;;;;;3.30;2.03;;;;;;;;;;4974266;28;21024;-81
2023/09/06 03:28:42;;;;;;;4.07;2.90;;;;;;;;;;4973633;28;20414;-82
2023/09/06 03:31:13;;;;;;;2.73;1.77;;;;;;;;;;4974414;28;20824;-81
2023/09/06 03:33:41;;;;;;;3.43;2.23;;;;;;;;;;4974309;28;20787;-81
2023/09/06 03:36:09;;;;;;;4.73;2.40;;;;;;;;;;4974307;28;20418;-80
2023/09/06 03:38:36;;;;;;;4.40;3.03;;;;;;;;;;4973798;28;20414;-81
2023/09/06 03:41:02;;;;;;;4.77;2.60;;;;;;;;;;4974258;28;20930;-80
2023/09/06 03:43:32;;;;;;;4.40;3.03;;;;;;;;;;4974219;28;20415;-81
2023/09/06 03:46:04;;;;;;;4.00;3.57;;;;;;;;;;4974015;28;20484;-83
2023/09/06 03:48:31;;;;;;;4.33;3.37;;;;;;;;;;4974102;28;20464;-80
2023/09/06 03:50:59;;;;;;;3.23;2.30;;;;;;;;;;4974053;28;20423;-81
2023/09/06 03:53:25;;;;;;;4.67;2.90;;;;;;;;;;4973672;28;20458;-82
2023/09/06 03:55:52;;;;;;;3.77;3.00;;;;;;;;;;4973866;28;20472;-81
2023/09/06 03:58:18;;;;;;;5.80;3.00;;;;;;;;;;4973911;28;20433;-82
2023/09/06 04:00:44;;;;;;;4.47;2.73;;;;;;;;;;4973930;28;20907;-83
2023/09/06 04:03:10;;;;;;;4.40;2.47;;;;;;;;;;4973944;28;20176;-81
2023/09/06 04:05:37;;;;;;;3.83;3.03;;;;;;;;;;4973818;28;20478;-82
2023/09/06 04:08:09;;;;;;;3.60;2.17;;;;;;;;;;4973660;28;20413;-80
2023/09/06 04:10:36;;;;;;;3.33;2.80;;;;;;;;;;4974092;28;20506;-83
2023/09/06 04:13:03;;;;;;;4.57;4.13;;;;;;;;;;4973799;28;20461;-80
2023/09/06 04:15:29;;;;;;;4.10;3.57;;;;;;;;;;4973873;28;20429;-80
2023/09/06 04:17:59;;;;;;;4.20;3.73;;;;;;;;;;4973832;28;20413;-82
2023/09/06 04:20:27;;;;;;;4.13;2.80;;;;;;;;;;4973759;28;20513;-83
2023/09/06 04:22:54;;;;;;;5.87;4.00;;;;;;;;;;4973505;28;20441;-83
2023/09/06 04:25:22;;;;;;;5.67;3.70;;;;;;;;;;4973552;28;20570;-80
2023/09/06 04:27:49;;;;;;;3.67;3.37;;;;;;;;;;4973738;28;20497;-81
2023/09/06 04:30:16;;;;;;;5.87;3.30;;;;;;;;;;4972580;28;20429;-81
2023/09/06 04:32:44;;;;;;;4.80;4.20;;;;;;;;;;4973667;28;20928;-81
2023/09/06 04:35:10;;;;;;;5.90;4.20;;;;;;;;;;4973735;28;20454;-81
2023/09/06 04:37:38;;;;;;;4.03;3.43;;;;;;;;;;4971995;28;20946;-81
2023/09/06 04:40:06;;;;;;;4.20;3.50;;;;;;;;;;4975236;28;20527;-82
2023/09/06 04:42:32;;;;;;;4.40;3.07;;;;;;;;;;4975348;28;20427;-81
2023/09/06 04:44:58;;;;;;;5.90;3.43;;;;;;;;;;4977019;28;20981;-80
2023/09/06 04:47:24;;;;;;;5.80;3.43;;;;;;;;;;4958122;28;20427;-82
2023/09/06 04:49:50;;;;;;;3.23;2.93;;;;;;;;;;4957642;28;20426;-81
2023/09/06 04:52:16;;;;;;;5.00;3.30;;;;;;;;;;4966069;28;20530;-82
2023/09/06 04:54:43;;;;;;;4.40;3.00;;;;;;;;;;4958506;28;20471;-80
2023/09/06 04:57:09;;;;;;;4.07;2.93;;;;;;;;;;4957664;28;20896;-82
2023/09/06 04:59:37;;;;;;;4.03;3.07;;;;;;;;;;4957545;28;20410;-80
2023/09/06 05:02:03;;;;;;;3.20;2.70;;;;;;;;;;4956211;28;20418;-80
2023/09/06 05:04:30;;;;;;;4.20;3.60;;;;;;;;;;4957374;29;20536;-81
2023/09/06 05:06:56;;;;;;;4.70;3.30;;;;;;;;;;4957022;28;20436;-81
2023/09/06 05:09:22;;;;;;;4.40;3.57;;;;;;;;;;4957379;28;20853;-80
2023/09/06 05:11:48;;;;;;;4.53;3.17;;;;;;;;;;4956011;28;20458;-81
2023/09/06 05:14:14;;;;;;;5.20;2.90;;;;;;;;;;4964188;28;20230;-80
2023/09/06 05:16:40;;;;;;;5.43;2.83;;;;;;;;;;4973134;28;20576;-88
2023/09/06 05:19:06;;;;;;;6.33;2.67;;;;;;;;;;4967344;28;20544;-87
2023/09/06 05:21:32;;;;;;;4.13;2.20;;;;;;;;;;4966208;28;20458;-81
2023/09/06 05:23:58;;;;;;;3.40;2.80;;;;;;;;;;4970770;28;20431;-82
2023/09/06 05:26:24;;;;;;;4.20;3.80;;;;;;;;;;4969206;28;20231;-85
2023/09/06 05:28:50;;;;;;;4.80;3.17;;;;;;;;;;4974875;28;20269;-82
2023/09/06 05:31:16;;;;;;;5.27;3.53;;;;;;;;;;4975926;28;20581;-79
2023/09/06 05:33:43;;;;;;;4.07;2.90;;;;;;;;;;4976072;28;20438;-80
2023/09/06 05:36:09;;;;;;;4.57;2.70;;;;;;;;;;4975552;28;20414;-79
2023/09/06 05:38:35;;;;;;;2.60;2.27;;;;;;;;;;4975725;28;20421;-79
2023/09/06 05:41:01;;;;;;;4.07;2.60;;;;;;;;;;4976006;28;20418;-80
2023/09/06 05:43:26;;;;;;;3.70;2.70;;;;;;;;;;4975703;28;20905;-80
2023/09/06 05:45:53;;;;;;;3.97;2.90;;;;;;;;;;4975831;28;20477;-80
2023/09/06 05:48:18;;;;;;;5.73;4.00;;;;;;;;;;4975823;28;20175;-80
2023/09/06 05:50:45;;;;;;;5.30;2.67;;;;;;;;;;4975353;28;20490;-80
2023/09/06 05:53:11;;;;;;;5.40;3.20;;;;;;;;;;4975238;28;20174;-80
2023/09/06 05:55:37;;;;;;;4.60;2.07;;;;;;;;;;4975636;28;20462;-81
2023/09/06 05:58:02;;;;;;;5.53;3.23;;;;;;;;;;4975774;28;20427;-79
2023/09/06 06:00:29;;;;;;;4.50;2.77;;;;;;;;;;4975710;28;20526;-80
2023/09/06 06:02:57;;;;;;;5.57;3.67;;;;;;;;;;4958280;28;20957;-80
2023/09/06 06:05:24;;;;;;;4.40;3.70;;;;;;;;;;4975370;28;20610;-81
2023/09/06 06:07:50;;;;;;;5.90;3.40;;;;;;;;;;4975011;28;20489;-82
2023/09/06 06:10:15;;;;;;;6.97;3.90;;;;;;;;;;4975495;28;20791;-83
2023/09/06 06:12:43;;;;;;;6.60;4.90;;;;;;;;;;4958204;28;20418;-82
2023/09/06 06:15:11;;;;;;;4.27;3.10;;;;;;;;;;4975312;28;20461;-82
2023/09/06 06:17:37;;;;;;;3.47;2.73;;;;;;;;;;4975357;28;20419;-82
2023/09/06 06:20:06;;;;;;;3.63;2.70;;;;;;;;;;4975463;28;20821;-79
2023/09/06 06:22:36;;;;;;;3.30;2.70;;;;;;;;;;4974951;28;20178;-77
2023/09/06 06:25:02;;;;;;;7.30;2.43;;;;;;;;;;4975137;28;20519;-77
2023/09/06 06:27:28;;;;;;;7.00;3.13;;;;;;;;;;4975061;28;20439;-77
2023/09/06 06:29:54;;;;;;;2.80;2.30;;;;;;;;;;4975048;28;20182;-78
2023/09/06 06:32:20;;;;;;;3.60;2.20;;;;;;;;;;4975148;28;20966;-78
2023/09/06 06:34:49;;;;;;;4.97;2.40;;;;;;;;;;4975106;28;20435;-78
2023/09/06 06:37:15;;;;;;;8.73;2.30;;;;;;;;;;4974750;28;20410;-78
2023/09/06 06:39:41;;;;;;;2.63;1.73;;;;;;;;;;4974973;28;20415;-78
2023/09/06 06:42:07;;;;;;;3.80;2.13;;;;;;;;;;4974998;28;20744;-78
2023/09/06 06:44:33;;;;;;;2.60;1.80;;;;;;;;;;4974831;28;20200;-78
2023/09/06 06:47:00;;;;;;;2.77;1.90;;;;;;;;;;4974859;28;20191;-78
2023/09/06 06:49:26;;;;;;;3.90;2.30;;;;;;;;;;4974847;28;20427;-78
2023/09/06 06:51:52;;;;;;;4.83;2.33;;;;;;;;;;4974431;28;20424;-78
2023/09/06 06:54:19;;;;;;;3.30;1.90;;;;;;;;;;4957283;28;20984;-78
2023/09/06 06:56:45;;;;;;;3.17;1.70;;;;;;;;;;4974757;28;20187;-78
2023/09/06 06:59:11;;;;;;;4.77;2.00;;;;;;;;;;4974657;28;20491;-78
2023/09/06 07:01:37;;;;;;;3.07;1.97;;;;;;;;;;4974665;28;20470;-78
2023/09/06 07:04:06;;;;;;;3.70;2.13;;;;;;;;;;4974427;28;20415;-78
2023/09/06 07:06:32;;;;;;;2.23;1.80;;;;;;;;;;4974223;28;20929;-78
2023/09/06 07:08:59;;;;;;;2.80;1.90;;;;;;;;;;4974472;28;20454;-78
2023/09/06 07:11:25;;;;;;;3.10;2.10;;;;;;;;;;4974559;28;20262;-79
2023/09/06 07:13:52;;;;;;;2.97;2.57;;;;;;;;;;4974461;28;20415;-78
2023/09/06 07:16:19;;;;;;;6.43;2.20;;;;;;;;;;4974449;28;20420;-79
2023/09/06 07:18:46;;;;;;;3.63;2.50;;;;;;;;;;4974393;28;20424;-78
2023/09/06 07:21:13;;;;;;;2.70;1.97;;;;;;;;;;4974050;28;20467;-78
2023/09/06 07:23:39;;;;;;;6.10;2.80;;;;;;;;;;4974348;28;20471;-78
2023/09/06 07:26:05;;;;;;;3.27;2.70;;;;;;;;;;4974262;28;21142;-79
2023/09/06 07:28:41;;;;;;;4.13;2.67;;;;;;;;;;4974305;28;20199;-79
2023/09/06 07:31:07;;;;;;;3.73;2.27;;;;;;;;;;4974236;28;20443;-78
2023/09/06 07:33:34;;;;;;;2.73;2.50;;;;;;;;;;4974228;28;20423;-78
2023/09/06 07:35:59;;;;;;;4.30;2.57;;;;;;;;;;4974072;28;20510;-78
2023/09/06 07:38:26;;;;;;;3.57;2.27;;;;;;;;;;4974128;28;20586;-79
2023/09/06 07:40:58;;;;;;;6.23;3.17;;;;;;;;;;4974226;28;20208;-78
2023/09/06 07:43:25;;;;;;;3.80;2.10;;;;;;;;;;4956728;28;20427;-78
2023/09/06 07:45:51;;;;;;;3.27;2.07;;;;;;;;;;4974051;28;20483;-79
2023/09/06 07:48:17;;;;;;;5.07;2.60;;;;;;;;;;4974027;28;20404;-79
2023/09/06 07:50:43;;;;;;;3.73;2.60;;;;;;;;;;4956708;28;20829;-79
2023/09/06 07:53:09;;;;;;;5.50;2.80;;;;;;;;;;4973727;28;20181;-78
2023/09/06 07:55:35;;;;;;;2.20;2.10;;;;;;;;;;4973950;28;20232;-79
2023/09/06 07:58:01;;;;;;;2.33;1.90;;;;;;;;;;4973980;28;20644;-79
2023/09/06 08:00:28;;;;;;;3.27;1.73;;;;;;;;;;4973965;28;20180;-79
2023/09/06 08:02:54;;;;;;;2.37;2.17;;;;;;;;;;4973968;28;20172;-79
2023/09/06 08:05:20;;;;;;;3.83;2.50;;;;;;;;;;4973847;28;20877;-79
2023/09/06 08:07:46;;;;;;;2.20;2.00;;;;;;;;;;4973633;28;20412;-79
2023/09/06 08:10:13;;;;;;;2.40;1.90;;;;;;;;;;4973948;28;20184;-79
2023/09/06 08:12:39;;;;;;;1.93;1.80;;;;;;;;;;4973914;28;20176;-80
2023/09/06 08:15:06;;;;;;;3.30;2.20;;;;;;;;;;4975627;28;20754;-80
2023/09/06 08:17:32;;;;;;;3.37;1.83;;;;;;;;;;4960172;28;20429;-80
2023/09/06 08:19:58;;;;;;;3.23;1.93;;;;;;;;;;4977587;28;20423;-80
2023/09/06 08:22:24;;;;;;;5.50;2.23;;;;;;;;;;4977226;28;20408;-80
2023/09/06 08:24:50;;;;;;;1.70;1.60;;;;;;;;;;4977486;28;20208;-80
2023/09/06 08:27:16;;;;;;;2.60;1.80;;;;;;;;;;4977460;28;20183;-80
2023/09/06 08:29:42;;;;;;;2.77;2.10;;;;;;;;;;4960044;28;20428;-80
2023/09/06 08:32:08;;;;;;;3.27;2.30;;;;;;;;;;4977366;28;20195;-80
2023/09/06 08:34:34;;;;;;;5.37;2.33;;;;;;;;;;4977284;28;20187;-80
2023/09/06 08:37:00;;;;;;;2.27;1.77;;;;;;;;;;4977028;28;20712;-80
2023/09/06 08:39:26;;;;;;;2.33;2.13;;;;;;;;;;4977162;28;20444;-80
2023/09/06 08:41:53;;;;;;;3.57;1.87;;;;;;;;;;4977250;28;20180;-81
2023/09/06 08:44:21;;;;;;;3.50;1.70;;;;;;;;;;4977067;28;20175;-80
2023/09/06 08:46:47;;;;;;;3.60;2.40;;;;;;;;;;4977138;28;20852;-80
2023/09/06 08:49:14;;;;;;;1.80;1.70;;;;;;;;;;4977184;28;20451;-80
2023/09/06 08:51:42;;;;;;;1.77;1.67;;;;;;;;;;4976737;28;20423;-80
2023/09/06 08:54:08;;;;;;;1.53;1.43;;;;;;;;;;4976791;28;20452;-80
2023/09/06 08:56:34;;;;;;;2.03;1.47;;;;;;;;;;4976912;28;20426;-80
2023/09/06 08:59:00;;;;;;;2.60;1.23;;;;;;;;;;4976896;28;20439;-81
2023/09/06 09:01:27;;;;;;;2.20;1.80;;;;;;;;;;4976821;28;20412;-80
2023/09/06 09:03:53;;;;;;;3.10;1.00;;;;;;;;;;4976855;28;20255;-80
2023/09/06 09:06:20;;;;;;;2.53;1.50;;;;;;;;;;4976394;28;20919;-81
2023/09/06 09:08:46;;;;;;;1.30;1.20;;;;;;;;;;4976751;28;20845;-80
2023/09/06 09:11:13;;;;;;;2.70;1.73;;;;;;;;;;4976681;28;20494;-80
2023/09/06 09:13:39;;;;;;;3.17;1.60;;;;;;;;;;4976654;28;20207;-80
2023/09/06 09:16:12;;;;;;;1.70;1.40;;;;;;;;;;4976536;28;20528;-80
2023/09/06 09:18:38;;;;;;;2.03;1.43;;;;;;;;;;4976543;28;20861;-80
2023/09/06 09:21:04;;;;;;;3.10;1.90;;;;;;;;;;4976154;28;20455;-80
2023/09/06 09:23:32;;;;;;;2.63;1.33;;;;;;;;;;4976471;28;20416;-80
2023/09/06 09:25:58;;;;;;;3.03;1.60;;;;;;;;;;4975325;28;20438;-78
2023/09/06 09:28:24;;;;;;;2.83;1.23;;;;;;;;;;4976390;28;20499;-80
2023/09/06 09:30:51;;;;;;;1.77;1.37;;;;;;;;;;4976425;28;20420;-80
2023/09/06 09:33:18;;;;;;;2.77;1.70;;;;;;;;;;4976311;28;20458;-80
2023/09/06 09:35:44;;;;;;;1.20;1.03;;;;;;;;;;4975883;28;20824;-81
2023/09/06 09:38:11;;;;;;;1.20;1.10;;;;;;;;;;4976176;28;20411;-80
2023/09/06 09:40:37;;;;;;;2.83;1.10;;;;;;;;;;4976139;28;20913;-80
2023/09/06 09:43:04;;;;;;;2.77;1.50;;;;;;;;;;4958864;28;20776;-81
2023/09/06 09:45:38;;;;;;;1.07;0.70;;;;;;;;;;4976031;28;20412;-81
2023/09/06 09:48:04;;;;;;;1.33;1.23;;;;;;;;;;4976091;28;20407;-80
2023/09/06 09:50:33;;;;;;;1.60;1.37;;;;;;;;;;4975903;28;20415;-80
2023/09/06 09:53:00;;;;;;;3.10;1.57;;;;;;;;;;4975584;28;20785;-80
2023/09/06 09:55:31;;;;;;;2.90;1.03;;;;;;;;;;4975585;28;20538;-81
2023/09/06 09:57:58;;;;;;;2.20;1.23;;;;;;;;;;4975812;28;20412;-80
2023/09/06 10:00:28;;;;;;;2.50;1.70;;;;;;;;;;4975772;28;20796;-79
2023/09/06 10:02:57;;;;;;;1.57;1.23;;;;;;;;;;4975740;28;20497;-79
2023/09/06 10:05:23;;;;;;;2.40;1.20;;;;;;;;;;4975709;28;20418;-80
2023/09/06 10:07:49;;;;;;;1.13;0.90;;;;;;;;;;4975457;28;20411;-81
2023/09/06 10:10:15;;;;;;;4.10;1.60;;;;;;;;;;4975627;28;20422;-81
2023/09/06 10:12:44;;;;;;;1.40;1.17;;;;;;;;;;4958215;28;20760;-80
2023/09/06 10:15:13;;;;;;;3.20;1.40;;;;;;;;;;4975450;28;20462;-80
2023/09/06 10:17:39;;;;;;;1.87;1.60;;;;;;;;;;4975394;28;20931;-80
2023/09/06 10:20:12;;;;;;;1.90;1.03;;;;;;;;;;4975459;28;20407;-80
2023/09/06 10:22:38;;;;;;;2.50;2.10;;;;;;;;;;4975089;28;20179;-80
2023/09/06 10:25:07;;;;;;;1.17;0.90;;;;;;;;;;4975334;28;20415;-80
2023/09/06 10:27:33;;;;;;;2.67;1.40;;;;;;;;;;4975223;28;20422;-80
2023/09/06 10:29:59;;;;;;;1.40;1.30;;;;;;;;;;4975269;28;21111;-80
2023/09/06 10:32:38;;;;;;;1.40;1.20;;;;;;;;;;4975203;28;20407;-79
2023/09/06 10:35:24;;;;;;;3.43;0.87;;;;;;;;;;4975150;28;20213;-79
2023/09/06 10:38:05;;;;;;;1.87;1.03;;;;;;;;;;4974518;28;20411;-80
2023/09/06 10:40:53;;;;;;;2.70;1.50;;;;;;;;;;4974998;28;20407;-80
2023/09/06 10:43:20;;;;;;;1.00;1.00;;;;;;;;;;4975000;28;20403;-80
2023/09/06 10:45:54;;;;;;;3.60;1.17;;;;;;;;;;4975015;28;20416;-79
2023/09/06 10:48:20;;;;;;;1.97;1.37;;;;;;;;;;4975019;28;20399;-80
2023/09/06 10:51:06;;;;;;;1.50;1.20;;;;;;;;;;4974571;28;20965;-80
2023/09/06 10:53:33;;;;;;;3.67;1.40;;;;;;;;;;4974791;28;20414;-80
2023/09/06 10:56:00;;;;;;;1.47;1.37;;;;;;;;;;4974741;28;21014;-81
2023/09/06 10:58:28;;;;;;;1.53;1.20;;;;;;;;;;4974808;28;20410;-80
2023/09/06 11:01:10;;;;;;;1.50;1.40;;;;;;;;;;4957433;28;20510;-80
2023/09/06 11:03:36;;;;;;;7.10;2.27;;;;;;;;;;4974707;28;20412;-80
2023/09/06 11:06:04;;;;;;;1.70;1.13;;;;;;;;;;4974356;28;20489;-79
2023/09/06 11:08:31;;;;;;;2.80;1.40;;;;;;;;;;4974614;28;20918;-80
2023/09/06 11:11:05;;;;;;;1.43;1.20;;;;;;;;;;4974652;28;20422;-80
2023/09/06 11:13:32;;;;;;;1.87;1.53;;;;;;;;;;4974584;28;20415;-80
2023/09/06 11:15:58;;;;;;;3.97;1.60;;;;;;;;;;4974453;28;20469;-81
2023/09/06 11:18:26;;;;;;;2.08;1.60;;;;;;;;;;4974439;28;20430;-81
2023/09/06 11:20:52;;;;;;;1.35;1.25;;;;;;;;;;4974077;28;20199;-81
2023/09/06 11:23:18;;;;;;;1.50;1.40;;;;;;;;;;4974437;28;20764;-81
2023/09/06 11:25:44;;;;;;;3.30;1.35;;;;;;;;;;4974382;28;20171;-80
2023/09/06 11:28:21;;;;;;;1.73;1.50;;;;;;;;;;4974353;28;20183;-80
2023/09/06 11:30:47;;;;;;;2.73;1.60;;;;;;;;;;4974273;28;20422;-80
2023/09/06 11:33:17;;;;;;;1.47;1.30;;;;;;;;;;4974326;28;20414;-81
2023/09/06 11:35:48;;;;;;;1.47;1.37;;;;;;;;;;4973843;28;20493;-81
2023/09/06 11:38:16;;;;;;;1.38;1.27;;;;;;;;;;4974175;28;20406;-81
2023/09/06 11:40:43;;;;;;;1.80;1.38;;;;;;;;;;4974163;28;20419;-81
2023/09/06 11:43:11;;;;;;;1.50;1.40;;;;;;;;;;4974278;28;20410;-81
2023/09/06 11:45:40;;;;;;;1.60;1.50;;;;;;;;;;4974071;28;20452;-81
2023/09/06 11:48:09;;;;;;;2.05;1.30;;;;;;;;;;4974097;28;20474;-80
2023/09/06 11:50:36;;;;;;;2.85;1.55;;;;;;;;;;4976558;28;20412;-79
2023/09/06 11:53:05;;;;;;;1.35;1.10;;;;;;;;;;4978112;28;20164;-80
2023/09/06 11:55:32;;;;;;;4.38;1.90;;;;;;;;;;4977942;28;20470;-80
2023/09/06 11:57:58;;;;;;;1.17;1.05;;;;;;;;;;4978106;28;20403;-81
2023/09/06 12:00:28;;;;;;;2.08;1.40;;;;;;;;;;4977757;28;20796;-80
2023/09/06 12:03:16;;;;;;;3.63;1.60;;;;;;;;;;4977839;28;20824;-80
2023/09/06 12:05:46;;;;;;;1.30;1.20;;;;;;;;;;4965189;28;20652;-82
2023/09/06 12:08:15;;;;;;;1.52;1.35;;;;;;;;;;4977843;28;20544;-81
2023/09/06 12:10:49;;;;;;;1.45;1.20;;;;;;;;;;4977785;28;20258;-81
2023/09/06 12:13:15;;;;;;;2.58;1.42;;;;;;;;;;4960443;28;20424;-82
2023/09/06 12:15:43;;;;;;;2.30;1.27;;;;;;;;;;4977621;28;20580;-81
2023/09/06 12:18:09;;;;;;;2.35;0.93;;;;;;;;;;4977660;28;20531;-81
2023/09/06 12:20:35;;;;;;;1.17;0.90;;;;;;;;;;4977266;28;20259;-81
2023/09/06 12:23:01;;;;;;;1.90;1.25;;;;;;;;;;4977650;28;20180;-81
2023/09/06 12:25:27;;;;;;;1.40;1.30;;;;;;;;;;4960123;28;20168;-81
2023/09/06 12:27:54;;;;;;;1.38;1.33;;;;;;;;;;4960223;28;20411;-82
2023/09/06 12:30:20;;;;;;;2.15;1.17;;;;;;;;;;4977445;28;20199;-83
2023/09/06 12:32:46;;;;;;;1.38;1.27;;;;;;;;;;4977330;28;20625;-82
2023/09/06 12:35:12;;;;;;;1.60;1.10;;;;;;;;;;4976944;28;20211;-81
2023/09/06 12:37:38;;;;;;;1.80;1.23;;;;;;;;;;4977284;28;20168;-80
2023/09/06 12:40:09;;;;;;;2.23;1.07;;;;;;;;;;4977181;28;20184;-81
2023/09/06 12:42:35;;;;;;;1.27;1.13;;;;;;;;;;4977088;28;20403;-83
2023/09/06 12:45:03;;;;;;;1.07;0.97;;;;;;;;;;4974759;28;20809;-80
2023/09/06 12:47:29;;;;;;;1.80;1.33;;;;;;;;;;4976792;28;20191;-80
2023/09/06 12:49:55;;;;;;;1.43;0.73;;;;;;;;;;4972249;28;20419;-79
2023/09/06 12:52:21;;;;;;;2.00;0.73;;;;;;;;;;4976126;28;20179;-83
2023/09/06 12:54:47;;;;;;;1.07;0.83;;;;;;;;;;4976249;28;20538;-80
2023/09/06 12:57:14;;;;;;;4.10;1.00;;;;;;;;;;4976483;28;20447;-80
2023/09/06 12:59:41;;;;;;;3.27;0.90;;;;;;;;;;4976542;28;20463;-80
2023/09/06 13:02:06;;;;;;;1.43;0.87;;;;;;;;;;4959114;28;20828;-80
2023/09/06 13:04:32;;;;;;;1.77;1.00;;;;;;;;;;4976112;28;20428;-81
2023/09/06 13:06:58;;;;;;;4.63;0.90;;;;;;;;;;4975979;28;20211;-80
2023/09/06 13:09:24;;;;;;;0.77;0.63;;;;;;;;;;4976316;28;20542;-81
2023/09/06 13:11:50;;;;;;;2.23;0.90;;;;;;;;;;4975937;28;20176;-80
2023/09/06 13:14:16;;;;;;;0.80;0.80;;;;;;;;;;4974924;28;20498;-80
2023/09/06 13:16:42;;;;;;;3.00;0.87;;;;;;;;;;4976225;28;20639;-80
2023/09/06 13:19:09;;;;;;;1.50;1.10;;;;;;;;;;4976044;28;20191;-80
2023/09/06 13:21:35;;;;;;;2.80;1.10;;;;;;;;;;4975695;28;20176;-79
2023/09/06 13:24:03;;;;;;;1.70;0.73;;;;;;;;;;4976079;28;20423;-81
2023/09/06 13:26:29;;;;;;;1.50;1.10;;;;;;;;;;4974794;28;20422;-80
2023/09/06 13:28:55;;;;;;;1.83;1.10;;;;;;;;;;4976055;28;20924;-84
2023/09/06 13:31:21;;;;;;;2.60;1.20;;;;;;;;;;4975991;28;20298;-82
2023/09/06 13:33:48;;;;;;;2.00;0.90;;;;;;;;;;4976030;28;20752;-82
2023/09/06 13:36:14;;;;;;;1.83;0.60;;;;;;;;;;4975269;28;20471;-83
2023/09/06 13:38:40;;;;;;;2.07;1.00;;;;;;;;;;4958501;28;20427;-83
2023/09/06 13:41:06;;;;;;;2.60;0.63;;;;;;;;;;4973921;28;20440;-83
2023/09/06 13:43:32;;;;;;;1.20;1.10;;;;;;;;;;4973040;28;20180;-79
2023/09/06 13:45:59;;;;;;;2.70;1.20;;;;;;;;;;4963134;28;20196;-75
2023/09/06 13:48:25;;;;;;;2.27;0.90;;;;;;;;;;4955945;28;20181;-78
2023/09/06 13:50:51;;;;;;;1.87;0.60;;;;;;;;;;4955644;28;20412;-80
2023/09/06 13:53:17;;;;;;;0.83;0.53;;;;;;;;;;4959579;28;20645;-79
2023/09/06 13:55:43;;;;;;;2.70;1.03;;;;;;;;;;4960269;28;20271;-80
2023/09/06 13:58:10;;;;;;;1.30;0.77;;;;;;;;;;4975481;28;20180;-81
2023/09/06 14:00:36;;;;;;;1.87;0.60;;;;;;;;;;4975429;28;20432;-79
2023/09/06 14:03:03;;;;;;;3.53;0.80;;;;;;;;;;4975339;28;20419;-80
2023/09/06 14:05:29;;;;;;;1.57;1.10;;;;;;;;;;4975014;28;20242;-80
2023/09/06 14:07:55;;;;;;;4.53;0.67;;;;;;;;;;4975178;28;20416;-79
2023/09/06 14:10:21;;;;;;;1.33;0.50;;;;;;;;;;4975269;28;20191;-80
2023/09/06 14:12:47;;;;;;;1.37;0.57;;;;;;;;;;4974677;28;20173;-80
2023/09/06 14:15:13;;;;;;;1.17;0.73;;;;;;;;;;4975066;28;20844;-79
2023/09/06 14:17:39;;;;;;;1.40;0.40;;;;;;;;;;4975145;28;20412;-80
2023/09/06 14:20:06;;;;;;;1.83;0.53;;;;;;;;;;4974750;28;20411;-80
2023/09/06 14:22:31;;;;;;;1.00;0.63;;;;;;;;;;4974970;28;20657;-81
2023/09/06 14:24:57;;;;;;;1.33;0.40;;;;;;;;;;4975029;28;20423;-78
2023/09/06 14:27:23;;;;;;;0.93;0.40;;;;;;;;;;4975008;28;20283;-80
2023/09/06 14:29:51;;;;;;;1.03;0.40;;;;;;;;;;4974722;28;20207;-81
2023/09/06 14:32:18;;;;;;;0.67;0.30;;;;;;;;;;4975140;28;20234;-81
2023/09/06 14:34:44;;;;;;;1.40;0.50;;;;;;;;;;4975190;28;20847;-80
2023/09/06 14:37:10;;;;;;;0.77;0.47;;;;;;;;;;4973474;28;20423;-80
2023/09/06 14:39:37;;;;;;;1.47;0.47;;;;;;;;;;4973925;28;20191;-79
2023/09/06 14:42:04;;;;;;;1.53;0.70;;;;;;;;;;4970214;28;20636;-79
2023/09/06 14:44:32;;;;;;;1.00;0.47;;;;;;;;;;4970849;28;20435;-79